sensor_id;sensor_type;location;lat;lon;timestamp;P1;durP1;ratioP1;P2;durP2;ratioP2
39524;SDS011;25203;50.754;6.978;2023-04-25T00:01:36;18.25;;;6.97;;
39524;SDS011;25203;50.754;6.978;2023-04-25T00:03:37;13.07;;;6.15;;
39524;SDS011;25203;50.754;6.978;2023-04-25T00:05:39;19.27;;;6.22;;
39524;SDS011;25203;50.754;6.978;2023-04-25T00:07:40;16.70;;;7.38;;
39524;SDS011;25203;50.754;6.978;2023-04-25T00:09:42;14.32;;;6.10;;
39524;SDS011;25203;50.754;6.978;2023-04-25T00:11:43;15.25;;;7.18;;
39524;SDS011;25203;50.754;6.978;2023-04-25T00:13:44;28.88;;;7.00;;
39524;SDS011;25203;50.754;6.978;2023-04-25T00:15:46;14.88;;;6.10;;
39524;SDS011;25203;50.754;6.978;2023-04-25T00:17:48;13.60;;;6.25;;
39524;SDS011;25203;50.754;6.978;2023-04-25T00:19:48;20.73;;;6.22;;
39524;SDS011;25203;50.754;6.978;2023-04-25T00:21:49;16.77;;;6.22;;
39524;SDS011;25203;50.754;6.978;2023-04-25T00:23:50;19.85;;;7.50;;
39524;SDS011;25203;50.754;6.978;2023-04-25T00:25:52;11.23;;;6.97;;
39524;SDS011;25203;50.754;6.978;2023-04-25T00:27:53;17.25;;;6.95;;
39524;SDS011;25203;50.754;6.978;2023-04-25T00:29:54;17.52;;;7.38;;
39524;SDS011;25203;50.754;6.978;2023-04-25T00:31:54;19.27;;;7.78;;
39524;SDS011;25203;50.754;6.978;2023-04-25T00:33:55;13.45;;;7.05;;
39524;SDS011;25203;50.754;6.978;2023-04-25T00:35:56;16.67;;;7.53;;
39524;SDS011;25203;50.754;6.978;2023-04-25T00:37:56;21.02;;;7.10;;
39524;SDS011;25203;50.754;6.978;2023-04-25T00:39:57;14.50;;;8.48;;
39524;SDS011;25203;50.754;6.978;2023-04-25T00:41:58;13.15;;;7.13;;
39524;SDS011;25203;50.754;6.978;2023-04-25T00:43:59;24.73;;;7.88;;
39524;SDS011;25203;50.754;6.978;2023-04-25T00:46:01;18.77;;;7.78;;
39524;SDS011;25203;50.754;6.978;2023-04-25T00:48:02;16.33;;;7.13;;
39524;SDS011;25203;50.754;6.978;2023-04-25T00:50:04;16.15;;;6.55;;
39524;SDS011;25203;50.754;6.978;2023-04-25T00:52:05;21.90;;;7.68;;
39524;SDS011;25203;50.754;6.978;2023-04-25T00:54:06;18.10;;;7.32;;
39524;SDS011;25203;50.754;6.978;2023-04-25T00:56:07;12.40;;;6.65;;
39524;SDS011;25203;50.754;6.978;2023-04-25T00:58:08;22.08;;;8.52;;
39524;SDS011;25203;50.754;6.978;2023-04-25T01:00:08;16.27;;;7.10;;
39524;SDS011;25203;50.754;6.978;2023-04-25T01:02:11;15.50;;;7.38;;
39524;SDS011;25203;50.754;6.978;2023-04-25T01:04:12;19.67;;;8.00;;
39524;SDS011;25203;50.754;6.978;2023-04-25T01:06:13;19.50;;;7.10;;
39524;SDS011;25203;50.754;6.978;2023-04-25T01:08:14;15.50;;;7.10;;
39524;SDS011;25203;50.754;6.978;2023-04-25T01:10:15;16.17;;;7.43;;
39524;SDS011;25203;50.754;6.978;2023-04-25T01:12:15;19.17;;;7.30;;
39524;SDS011;25203;50.754;6.978;2023-04-25T01:14:16;25.58;;;9.55;;
39524;SDS011;25203;50.754;6.978;2023-04-25T01:16:17;16.42;;;8.10;;
39524;SDS011;25203;50.754;6.978;2023-04-25T01:18:17;16.60;;;8.25;;
39524;SDS011;25203;50.754;6.978;2023-04-25T01:20:21;23.88;;;8.80;;
39524;SDS011;25203;50.754;6.978;2023-04-25T01:22:22;20.08;;;8.18;;
39524;SDS011;25203;50.754;6.978;2023-04-25T01:24:23;19.58;;;7.63;;
39524;SDS011;25203;50.754;6.978;2023-04-25T01:26:24;17.55;;;7.72;;
39524;SDS011;25203;50.754;6.978;2023-04-25T01:28:25;25.23;;;7.85;;
39524;SDS011;25203;50.754;6.978;2023-04-25T01:30:26;15.20;;;7.65;;
39524;SDS011;25203;50.754;6.978;2023-04-25T01:32:27;21.77;;;8.02;;
39524;SDS011;25203;50.754;6.978;2023-04-25T01:34:28;25.73;;;9.85;;
39524;SDS011;25203;50.754;6.978;2023-04-25T01:36:29;23.77;;;8.57;;
39524;SDS011;25203;50.754;6.978;2023-04-25T01:38:30;28.98;;;8.98;;
39524;SDS011;25203;50.754;6.978;2023-04-25T01:40:31;18.88;;;8.88;;
39524;SDS011;25203;50.754;6.978;2023-04-25T01:42:35;18.15;;;8.27;;
39524;SDS011;25203;50.754;6.978;2023-04-25T01:44:36;23.25;;;8.63;;
39524;SDS011;25203;50.754;6.978;2023-04-25T01:46:37;23.55;;;9.05;;
39524;SDS011;25203;50.754;6.978;2023-04-25T01:48:38;18.58;;;7.97;;
39524;SDS011;25203;50.754;6.978;2023-04-25T01:50:39;17.38;;;8.32;;
39524;SDS011;25203;50.754;6.978;2023-04-25T01:52:40;21.67;;;9.52;;
39524;SDS011;25203;50.754;6.978;2023-04-25T01:54:41;19.13;;;8.65;;
39524;SDS011;25203;50.754;6.978;2023-04-25T01:56:49;19.95;;;8.40;;
39524;SDS011;25203;50.754;6.978;2023-04-25T01:58:51;20.85;;;8.60;;
39524;SDS011;25203;50.754;6.978;2023-04-25T02:00:52;21.58;;;10.13;;
39524;SDS011;25203;50.754;6.978;2023-04-25T02:02:52;18.85;;;9.07;;
39524;SDS011;25203;50.754;6.978;2023-04-25T02:04:53;25.83;;;9.40;;
39524;SDS011;25203;50.754;6.978;2023-04-25T02:06:54;19.05;;;8.65;;
39524;SDS011;25203;50.754;6.978;2023-04-25T02:08:55;19.55;;;9.30;;
39524;SDS011;25203;50.754;6.978;2023-04-25T02:10:55;21.52;;;9.15;;
39524;SDS011;25203;50.754;6.978;2023-04-25T02:12:56;22.17;;;9.30;;
39524;SDS011;25203;50.754;6.978;2023-04-25T02:14:57;20.17;;;9.10;;
39524;SDS011;25203;50.754;6.978;2023-04-25T02:16:58;20.00;;;8.80;;
39524;SDS011;25203;50.754;6.978;2023-04-25T02:18:58;21.10;;;8.10;;
39524;SDS011;25203;50.754;6.978;2023-04-25T02:21:00;24.30;;;9.27;;
39524;SDS011;25203;50.754;6.978;2023-04-25T02:23:01;21.30;;;9.10;;
39524;SDS011;25203;50.754;6.978;2023-04-25T02:25:02;25.60;;;9.43;;
39524;SDS011;25203;50.754;6.978;2023-04-25T02:27:04;25.08;;;9.02;;
39524;SDS011;25203;50.754;6.978;2023-04-25T02:29:05;14.32;;;8.45;;
39524;SDS011;25203;50.754;6.978;2023-04-25T02:31:07;18.80;;;8.15;;
39524;SDS011;25203;50.754;6.978;2023-04-25T02:33:07;22.77;;;8.52;;
39524;SDS011;25203;50.754;6.978;2023-04-25T02:35:08;21.63;;;8.23;;
39524;SDS011;25203;50.754;6.978;2023-04-25T02:37:09;22.83;;;8.90;;
39524;SDS011;25203;50.754;6.978;2023-04-25T02:39:10;26.38;;;8.85;;
39524;SDS011;25203;50.754;6.978;2023-04-25T02:41:10;22.63;;;9.18;;
39524;SDS011;25203;50.754;6.978;2023-04-25T02:43:11;16.95;;;9.02;;
39524;SDS011;25203;50.754;6.978;2023-04-25T02:45:11;25.00;;;8.95;;
39524;SDS011;25203;50.754;6.978;2023-04-25T02:47:12;22.80;;;8.80;;
39524;SDS011;25203;50.754;6.978;2023-04-25T02:49:13;18.60;;;8.30;;
39524;SDS011;25203;50.754;6.978;2023-04-25T02:51:13;22.42;;;9.00;;
39524;SDS011;25203;50.754;6.978;2023-04-25T02:53:16;22.80;;;8.77;;
39524;SDS011;25203;50.754;6.978;2023-04-25T02:55:16;19.70;;;8.32;;
39524;SDS011;25203;50.754;6.978;2023-04-25T02:57:17;18.95;;;8.27;;
39524;SDS011;25203;50.754;6.978;2023-04-25T02:59:18;23.05;;;8.68;;
39524;SDS011;25203;50.754;6.978;2023-04-25T03:01:18;20.52;;;8.90;;
39524;SDS011;25203;50.754;6.978;2023-04-25T03:03:19;18.30;;;7.82;;
39524;SDS011;25203;50.754;6.978;2023-04-25T03:05:23;22.73;;;8.85;;
39524;SDS011;25203;50.754;6.978;2023-04-25T03:07:23;16.25;;;8.00;;
39524;SDS011;25203;50.754;6.978;2023-04-25T03:09:24;16.48;;;7.38;;
39524;SDS011;25203;50.754;6.978;2023-04-25T03:11:25;16.17;;;6.95;;
39524;SDS011;25203;50.754;6.978;2023-04-25T03:13:26;17.58;;;8.70;;
39524;SDS011;25203;50.754;6.978;2023-04-25T03:15:27;20.10;;;8.35;;
39524;SDS011;25203;50.754;6.978;2023-04-25T03:17:28;24.92;;;8.07;;
39524;SDS011;25203;50.754;6.978;2023-04-25T03:19:28;17.60;;;7.93;;
39524;SDS011;25203;50.754;6.978;2023-04-25T03:21:29;22.80;;;8.52;;
39524;SDS011;25203;50.754;6.978;2023-04-25T03:23:34;23.75;;;9.25;;
39524;SDS011;25203;50.754;6.978;2023-04-25T03:25:34;25.77;;;9.13;;
39524;SDS011;25203;50.754;6.978;2023-04-25T03:27:35;24.42;;;9.50;;
39524;SDS011;25203;50.754;6.978;2023-04-25T03:29:36;17.48;;;8.60;;
39524;SDS011;25203;50.754;6.978;2023-04-25T03:31:36;20.73;;;8.77;;
39524;SDS011;25203;50.754;6.978;2023-04-25T03:33:37;21.58;;;8.68;;
39524;SDS011;25203;50.754;6.978;2023-04-25T03:35:37;18.20;;;8.18;;
39524;SDS011;25203;50.754;6.978;2023-04-25T03:37:38;27.45;;;9.00;;
39524;SDS011;25203;50.754;6.978;2023-04-25T03:39:40;20.88;;;8.52;;
39524;SDS011;25203;50.754;6.978;2023-04-25T03:41:41;22.50;;;9.02;;
39524;SDS011;25203;50.754;6.978;2023-04-25T03:43:41;24.13;;;9.30;;
39524;SDS011;25203;50.754;6.978;2023-04-25T03:45:42;23.85;;;9.63;;
39524;SDS011;25203;50.754;6.978;2023-04-25T03:47:42;28.65;;;9.57;;
39524;SDS011;25203;50.754;6.978;2023-04-25T03:49:43;27.20;;;11.13;;
39524;SDS011;25203;50.754;6.978;2023-04-25T03:51:44;24.60;;;10.55;;
39524;SDS011;25203;50.754;6.978;2023-04-25T03:53:45;27.35;;;9.98;;
39524;SDS011;25203;50.754;6.978;2023-04-25T03:55:45;23.40;;;9.88;;
39524;SDS011;25203;50.754;6.978;2023-04-25T03:57:46;27.38;;;12.18;;
39524;SDS011;25203;50.754;6.978;2023-04-25T03:59:47;24.90;;;11.75;;
39524;SDS011;25203;50.754;6.978;2023-04-25T04:01:47;21.15;;;9.82;;
39524;SDS011;25203;50.754;6.978;2023-04-25T04:03:48;23.73;;;10.70;;
39524;SDS011;25203;50.754;6.978;2023-04-25T04:05:48;26.25;;;11.18;;
39524;SDS011;25203;50.754;6.978;2023-04-25T04:07:50;28.77;;;10.85;;
39524;SDS011;25203;50.754;6.978;2023-04-25T04:09:51;23.33;;;10.63;;
39524;SDS011;25203;50.754;6.978;2023-04-25T04:11:51;19.85;;;10.23;;
39524;SDS011;25203;50.754;6.978;2023-04-25T04:13:52;32.08;;;9.68;;
39524;SDS011;25203;50.754;6.978;2023-04-25T04:15:52;25.30;;;11.27;;
39524;SDS011;25203;50.754;6.978;2023-04-25T04:17:53;27.95;;;10.18;;
39524;SDS011;25203;50.754;6.978;2023-04-25T04:19:54;22.83;;;9.65;;
39524;SDS011;25203;50.754;6.978;2023-04-25T04:21:55;23.83;;;9.18;;
39524;SDS011;25203;50.754;6.978;2023-04-25T04:23:55;23.20;;;10.20;;
39524;SDS011;25203;50.754;6.978;2023-04-25T04:25:57;21.80;;;11.02;;
39524;SDS011;25203;50.754;6.978;2023-04-25T04:27:58;28.40;;;9.73;;
39524;SDS011;25203;50.754;6.978;2023-04-25T04:29:58;19.88;;;9.48;;
39524;SDS011;25203;50.754;6.978;2023-04-25T04:32:00;21.13;;;10.00;;
39524;SDS011;25203;50.754;6.978;2023-04-25T04:34:01;29.77;;;11.13;;
39524;SDS011;25203;50.754;6.978;2023-04-25T04:36:01;27.15;;;9.85;;
39524;SDS011;25203;50.754;6.978;2023-04-25T04:38:03;22.60;;;10.18;;
39524;SDS011;25203;50.754;6.978;2023-04-25T04:40:04;26.88;;;10.55;;
39524;SDS011;25203;50.754;6.978;2023-04-25T04:42:05;21.80;;;10.07;;
39524;SDS011;25203;50.754;6.978;2023-04-25T04:44:05;20.38;;;9.75;;
39524;SDS011;25203;50.754;6.978;2023-04-25T04:46:07;22.63;;;10.23;;
39524;SDS011;25203;50.754;6.978;2023-04-25T04:48:10;23.65;;;9.88;;
39524;SDS011;25203;50.754;6.978;2023-04-25T04:50:14;27.48;;;11.05;;
39524;SDS011;25203;50.754;6.978;2023-04-25T04:52:14;30.17;;;11.02;;
39524;SDS011;25203;50.754;6.978;2023-04-25T04:54:15;34.35;;;11.77;;
39524;SDS011;25203;50.754;6.978;2023-04-25T04:56:16;20.95;;;10.45;;
39524;SDS011;25203;50.754;6.978;2023-04-25T04:58:16;24.83;;;10.82;;
39524;SDS011;25203;50.754;6.978;2023-04-25T05:00:17;25.52;;;11.27;;
39524;SDS011;25203;50.754;6.978;2023-04-25T05:02:18;23.30;;;10.77;;
39524;SDS011;25203;50.754;6.978;2023-04-25T05:04:18;32.00;;;12.90;;
39524;SDS011;25203;50.754;6.978;2023-04-25T05:06:19;26.25;;;11.32;;
39524;SDS011;25203;50.754;6.978;2023-04-25T05:08:19;25.30;;;11.73;;
39524;SDS011;25203;50.754;6.978;2023-04-25T05:10:20;30.25;;;11.52;;
39524;SDS011;25203;50.754;6.978;2023-04-25T05:12:21;32.53;;;12.27;;
39524;SDS011;25203;50.754;6.978;2023-04-25T05:14:21;33.72;;;12.15;;
39524;SDS011;25203;50.754;6.978;2023-04-25T05:16:23;30.75;;;12.23;;
39524;SDS011;25203;50.754;6.978;2023-04-25T05:18:23;24.95;;;10.43;;
39524;SDS011;25203;50.754;6.978;2023-04-25T05:20:24;32.65;;;11.70;;
39524;SDS011;25203;50.754;6.978;2023-04-25T05:22:25;26.10;;;9.20;;
39524;SDS011;25203;50.754;6.978;2023-04-25T05:24:26;26.75;;;9.80;;
39524;SDS011;25203;50.754;6.978;2023-04-25T05:26:26;33.00;;;10.00;;
39524;SDS011;25203;50.754;6.978;2023-04-25T05:28:30;31.65;;;10.45;;
39524;SDS011;25203;50.754;6.978;2023-04-25T05:30:31;28.83;;;10.13;;
39524;SDS011;25203;50.754;6.978;2023-04-25T05:32:32;25.00;;;9.70;;
39524;SDS011;25203;50.754;6.978;2023-04-25T05:34:32;23.15;;;8.85;;
39524;SDS011;25203;50.754;6.978;2023-04-25T05:36:33;19.33;;;8.75;;
39524;SDS011;25203;50.754;6.978;2023-04-25T05:38:33;20.83;;;9.43;;
39524;SDS011;25203;50.754;6.978;2023-04-25T05:40:34;28.95;;;9.30;;
39524;SDS011;25203;50.754;6.978;2023-04-25T05:42:35;26.63;;;8.60;;
39524;SDS011;25203;50.754;6.978;2023-04-25T05:44:35;28.13;;;8.38;;
39524;SDS011;25203;50.754;6.978;2023-04-25T05:46:36;17.33;;;8.63;;
39524;SDS011;25203;50.754;6.978;2023-04-25T05:48:37;20.35;;;8.02;;
39524;SDS011;25203;50.754;6.978;2023-04-25T05:50:38;25.60;;;8.65;;
39524;SDS011;25203;50.754;6.978;2023-04-25T05:52:38;23.48;;;8.15;;
39524;SDS011;25203;50.754;6.978;2023-04-25T05:54:39;17.30;;;8.50;;
39524;SDS011;25203;50.754;6.978;2023-04-25T05:56:39;24.52;;;8.38;;
39524;SDS011;25203;50.754;6.978;2023-04-25T05:58:40;26.48;;;9.07;;
39524;SDS011;25203;50.754;6.978;2023-04-25T06:00:41;23.60;;;8.65;;
39524;SDS011;25203;50.754;6.978;2023-04-25T06:02:41;24.25;;;8.25;;
39524;SDS011;25203;50.754;6.978;2023-04-25T06:04:42;24.25;;;9.02;;
39524;SDS011;25203;50.754;6.978;2023-04-25T06:06:43;25.65;;;8.52;;
39524;SDS011;25203;50.754;6.978;2023-04-25T06:08:43;24.42;;;7.45;;
39524;SDS011;25203;50.754;6.978;2023-04-25T06:10:44;24.88;;;7.80;;
39524;SDS011;25203;50.754;6.978;2023-04-25T06:12:45;21.77;;;7.35;;
39524;SDS011;25203;50.754;6.978;2023-04-25T06:14:46;21.02;;;7.45;;
39524;SDS011;25203;50.754;6.978;2023-04-25T06:16:46;24.42;;;7.15;;
39524;SDS011;25203;50.754;6.978;2023-04-25T06:18:47;18.05;;;7.32;;
39524;SDS011;25203;50.754;6.978;2023-04-25T06:20:48;17.67;;;7.22;;
39524;SDS011;25203;50.754;6.978;2023-04-25T06:22:48;19.02;;;8.65;;
39524;SDS011;25203;50.754;6.978;2023-04-25T06:24:49;23.60;;;8.27;;
39524;SDS011;25203;50.754;6.978;2023-04-25T06:26:50;25.70;;;8.95;;
39524;SDS011;25203;50.754;6.978;2023-04-25T06:28:51;20.92;;;7.43;;
39524;SDS011;25203;50.754;6.978;2023-04-25T06:30:51;22.27;;;8.45;;
39524;SDS011;25203;50.754;6.978;2023-04-25T06:32:52;24.30;;;8.80;;
39524;SDS011;25203;50.754;6.978;2023-04-25T06:34:53;27.10;;;9.40;;
39524;SDS011;25203;50.754;6.978;2023-04-25T06:36:53;51.67;;;18.80;;
39524;SDS011;25203;50.754;6.978;2023-04-25T06:38:54;26.42;;;8.45;;
39524;SDS011;25203;50.754;6.978;2023-04-25T06:40:55;23.30;;;8.80;;
39524;SDS011;25203;50.754;6.978;2023-04-25T06:42:55;25.15;;;7.53;;
39524;SDS011;25203;50.754;6.978;2023-04-25T06:44:56;17.02;;;5.95;;
39524;SDS011;25203;50.754;6.978;2023-04-25T06:46:56;22.75;;;7.05;;
39524;SDS011;25203;50.754;6.978;2023-04-25T06:48:57;27.92;;;6.20;;
39524;SDS011;25203;50.754;6.978;2023-04-25T06:50:57;20.50;;;6.40;;
39524;SDS011;25203;50.754;6.978;2023-04-25T06:52:58;22.40;;;7.38;;
39524;SDS011;25203;50.754;6.978;2023-04-25T06:54:59;21.23;;;6.13;;
39524;SDS011;25203;50.754;6.978;2023-04-25T06:56:59;21.58;;;6.95;;
39524;SDS011;25203;50.754;6.978;2023-04-25T06:59:00;21.17;;;6.55;;
39524;SDS011;25203;50.754;6.978;2023-04-25T07:01:01;23.02;;;6.20;;
39524;SDS011;25203;50.754;6.978;2023-04-25T07:03:02;18.95;;;5.90;;
39524;SDS011;25203;50.754;6.978;2023-04-25T07:05:03;27.30;;;7.22;;
39524;SDS011;25203;50.754;6.978;2023-04-25T07:07:04;27.98;;;6.85;;
39524;SDS011;25203;50.754;6.978;2023-04-25T07:09:04;24.00;;;6.90;;
39524;SDS011;25203;50.754;6.978;2023-04-25T07:11:05;18.92;;;7.00;;
39524;SDS011;25203;50.754;6.978;2023-04-25T07:13:06;21.48;;;7.35;;
39524;SDS011;25203;50.754;6.978;2023-04-25T07:15:06;24.90;;;6.43;;
39524;SDS011;25203;50.754;6.978;2023-04-25T07:17:10;21.80;;;7.07;;
39524;SDS011;25203;50.754;6.978;2023-04-25T07:19:10;17.08;;;7.07;;
39524;SDS011;25203;50.754;6.978;2023-04-25T07:21:11;22.42;;;6.40;;
39524;SDS011;25203;50.754;6.978;2023-04-25T07:23:11;25.45;;;6.80;;
39524;SDS011;25203;50.754;6.978;2023-04-25T07:25:12;21.70;;;6.88;;
39524;SDS011;25203;50.754;6.978;2023-04-25T07:27:12;22.30;;;6.10;;
39524;SDS011;25203;50.754;6.978;2023-04-25T07:29:13;16.98;;;5.03;;
39524;SDS011;25203;50.754;6.978;2023-04-25T07:31:14;13.93;;;5.20;;
39524;SDS011;25203;50.754;6.978;2023-04-25T07:33:16;18.05;;;6.13;;
39524;SDS011;25203;50.754;6.978;2023-04-25T07:35:17;23.85;;;6.05;;
39524;SDS011;25203;50.754;6.978;2023-04-25T07:37:18;23.02;;;6.32;;
39524;SDS011;25203;50.754;6.978;2023-04-25T07:39:21;19.63;;;5.28;;
39524;SDS011;25203;50.754;6.978;2023-04-25T07:41:23;16.55;;;5.50;;
39524;SDS011;25203;50.754;6.978;2023-04-25T07:43:23;20.65;;;5.90;;
39524;SDS011;25203;50.754;6.978;2023-04-25T07:45:24;21.05;;;5.55;;
39524;SDS011;25203;50.754;6.978;2023-04-25T07:47:26;15.85;;;5.68;;
39524;SDS011;25203;50.754;6.978;2023-04-25T07:49:26;16.52;;;5.05;;
39524;SDS011;25203;50.754;6.978;2023-04-25T07:51:27;16.73;;;5.40;;
39524;SDS011;25203;50.754;6.978;2023-04-25T07:53:30;17.52;;;5.30;;
39524;SDS011;25203;50.754;6.978;2023-04-25T07:55:32;21.05;;;5.97;;
39524;SDS011;25203;50.754;6.978;2023-04-25T07:57:32;18.73;;;5.32;;
39524;SDS011;25203;50.754;6.978;2023-04-25T07:59:33;16.95;;;5.65;;
39524;SDS011;25203;50.754;6.978;2023-04-25T08:01:33;20.38;;;5.80;;
39524;SDS011;25203;50.754;6.978;2023-04-25T08:03:34;18.63;;;6.05;;
39524;SDS011;25203;50.754;6.978;2023-04-25T08:05:35;21.30;;;5.90;;
39524;SDS011;25203;50.754;6.978;2023-04-25T08:07:35;18.48;;;5.38;;
39524;SDS011;25203;50.754;6.978;2023-04-25T08:09:36;16.73;;;5.20;;
39524;SDS011;25203;50.754;6.978;2023-04-25T08:11:36;16.42;;;5.40;;
39524;SDS011;25203;50.754;6.978;2023-04-25T08:13:37;20.15;;;5.72;;
39524;SDS011;25203;50.754;6.978;2023-04-25T08:15:38;19.63;;;5.10;;
39524;SDS011;25203;50.754;6.978;2023-04-25T08:17:38;18.58;;;5.03;;
39524;SDS011;25203;50.754;6.978;2023-04-25T08:19:39;21.63;;;5.30;;
39524;SDS011;25203;50.754;6.978;2023-04-25T08:21:39;16.13;;;4.63;;
39524;SDS011;25203;50.754;6.978;2023-04-25T08:23:40;13.18;;;4.25;;
39524;SDS011;25203;50.754;6.978;2023-04-25T08:25:40;19.00;;;4.55;;
39524;SDS011;25203;50.754;6.978;2023-04-25T08:27:41;17.73;;;4.68;;
39524;SDS011;25203;50.754;6.978;2023-04-25T08:29:42;15.57;;;5.00;;
39524;SDS011;25203;50.754;6.978;2023-04-25T08:31:42;22.38;;;5.13;;
39524;SDS011;25203;50.754;6.978;2023-04-25T08:33:43;20.65;;;5.35;;
39524;SDS011;25203;50.754;6.978;2023-04-25T08:35:45;15.00;;;5.18;;
39524;SDS011;25203;50.754;6.978;2023-04-25T08:37:45;19.90;;;4.68;;
39524;SDS011;25203;50.754;6.978;2023-04-25T08:39:46;10.80;;;3.92;;
39524;SDS011;25203;50.754;6.978;2023-04-25T08:41:52;20.90;;;4.95;;
39524;SDS011;25203;50.754;6.978;2023-04-25T08:43:53;14.40;;;4.18;;
39524;SDS011;25203;50.754;6.978;2023-04-25T08:46:00;14.45;;;3.53;;
39524;SDS011;25203;50.754;6.978;2023-04-25T08:48:01;15.38;;;3.90;;
39524;SDS011;25203;50.754;6.978;2023-04-25T08:50:03;16.02;;;4.22;;
39524;SDS011;25203;50.754;6.978;2023-04-25T08:52:05;14.45;;;4.57;;
39524;SDS011;25203;50.754;6.978;2023-04-25T08:54:11;15.57;;;4.60;;
39524;SDS011;25203;50.754;6.978;2023-04-25T08:56:13;14.05;;;3.85;;
39524;SDS011;25203;50.754;6.978;2023-04-25T08:58:18;15.43;;;4.28;;
39524;SDS011;25203;50.754;6.978;2023-04-25T09:00:19;12.07;;;3.90;;
39524;SDS011;25203;50.754;6.978;2023-04-25T09:02:19;19.80;;;4.90;;
39524;SDS011;25203;50.754;6.978;2023-04-25T09:04:20;16.42;;;4.47;;
39524;SDS011;25203;50.754;6.978;2023-04-25T09:06:21;13.65;;;4.55;;
39524;SDS011;25203;50.754;6.978;2023-04-25T09:08:24;13.60;;;4.55;;
39524;SDS011;25203;50.754;6.978;2023-04-25T09:10:24;12.10;;;3.95;;
39524;SDS011;25203;50.754;6.978;2023-04-25T09:12:25;14.18;;;4.18;;
39524;SDS011;25203;50.754;6.978;2023-04-25T09:14:27;13.93;;;4.65;;
39524;SDS011;25203;50.754;6.978;2023-04-25T09:16:28;16.65;;;4.70;;
39524;SDS011;25203;50.754;6.978;2023-04-25T09:18:29;14.98;;;4.30;;
39524;SDS011;25203;50.754;6.978;2023-04-25T09:20:36;11.05;;;3.75;;
39524;SDS011;25203;50.754;6.978;2023-04-25T09:22:42;11.52;;;3.70;;
39524;SDS011;25203;50.754;6.978;2023-04-25T09:24:46;11.77;;;4.50;;
39524;SDS011;25203;50.754;6.978;2023-04-25T09:26:48;9.60;;;3.70;;
39524;SDS011;25203;50.754;6.978;2023-04-25T09:28:49;13.80;;;3.58;;
39524;SDS011;25203;50.754;6.978;2023-04-25T09:31:05;11.88;;;3.78;;
39524;SDS011;25203;50.754;6.978;2023-04-25T09:33:06;11.55;;;3.42;;
39524;SDS011;25203;50.754;6.978;2023-04-25T09:35:07;9.48;;;2.47;;
39524;SDS011;25203;50.754;6.978;2023-04-25T09:37:11;11.07;;;3.47;;
39524;SDS011;25203;50.754;6.978;2023-04-25T09:39:17;11.55;;;2.92;;
39524;SDS011;25203;50.754;6.978;2023-04-25T09:41:25;13.70;;;3.67;;
39524;SDS011;25203;50.754;6.978;2023-04-25T09:43:26;6.78;;;2.88;;
39524;SDS011;25203;50.754;6.978;2023-04-25T09:45:29;10.27;;;3.20;;
39524;SDS011;25203;50.754;6.978;2023-04-25T09:47:31;10.02;;;3.78;;
39524;SDS011;25203;50.754;6.978;2023-04-25T09:49:32;14.10;;;3.15;;
39524;SDS011;25203;50.754;6.978;2023-04-25T09:51:32;8.52;;;2.67;;
39524;SDS011;25203;50.754;6.978;2023-04-25T09:53:34;14.27;;;3.20;;
39524;SDS011;25203;50.754;6.978;2023-04-25T09:55:35;16.52;;;3.55;;
39524;SDS011;25203;50.754;6.978;2023-04-25T09:57:38;12.63;;;3.05;;
39524;SDS011;25203;50.754;6.978;2023-04-25T09:59:42;10.88;;;3.75;;
39524;SDS011;25203;50.754;6.978;2023-04-25T10:01:45;14.00;;;3.63;;
39524;SDS011;25203;50.754;6.978;2023-04-25T10:03:46;14.45;;;3.63;;
39524;SDS011;25203;50.754;6.978;2023-04-25T10:05:50;6.30;;;2.85;;
39524;SDS011;25203;50.754;6.978;2023-04-25T10:07:52;6.53;;;2.28;;
39524;SDS011;25203;50.754;6.978;2023-04-25T10:10:03;7.05;;;2.30;;
39524;SDS011;25203;50.754;6.978;2023-04-25T10:12:04;10.10;;;2.88;;
39524;SDS011;25203;50.754;6.978;2023-04-25T10:14:07;10.48;;;2.40;;
39524;SDS011;25203;50.754;6.978;2023-04-25T10:16:08;13.38;;;3.30;;
39524;SDS011;25203;50.754;6.978;2023-04-25T10:18:09;12.95;;;2.80;;
39524;SDS011;25203;50.754;6.978;2023-04-25T10:20:10;12.35;;;3.15;;
39524;SDS011;25203;50.754;6.978;2023-04-25T10:24:14;9.50;;;3.28;;
39524;SDS011;25203;50.754;6.978;2023-04-25T10:26:15;14.85;;;3.60;;
39524;SDS011;25203;50.754;6.978;2023-04-25T10:28:16;12.48;;;3.17;;
39524;SDS011;25203;50.754;6.978;2023-04-25T10:30:18;11.95;;;3.70;;
39524;SDS011;25203;50.754;6.978;2023-04-25T10:32:18;13.25;;;3.05;;
39524;SDS011;25203;50.754;6.978;2023-04-25T10:34:19;10.27;;;2.58;;
39524;SDS011;25203;50.754;6.978;2023-04-25T10:36:25;8.38;;;2.80;;
39524;SDS011;25203;50.754;6.978;2023-04-25T10:38:27;10.60;;;2.85;;
39524;SDS011;25203;50.754;6.978;2023-04-25T10:40:28;9.45;;;3.10;;
39524;SDS011;25203;50.754;6.978;2023-04-25T10:42:28;7.57;;;2.63;;
39524;SDS011;25203;50.754;6.978;2023-04-25T10:44:30;11.00;;;3.08;;
39524;SDS011;25203;50.754;6.978;2023-04-25T10:46:32;13.73;;;3.47;;
39524;SDS011;25203;50.754;6.978;2023-04-25T10:48:35;8.40;;;2.90;;
39524;SDS011;25203;50.754;6.978;2023-04-25T10:50:38;10.77;;;3.33;;
39524;SDS011;25203;50.754;6.978;2023-04-25T10:52:41;13.40;;;2.95;;
39524;SDS011;25203;50.754;6.978;2023-04-25T10:54:43;10.45;;;3.72;;
39524;SDS011;25203;50.754;6.978;2023-04-25T10:56:48;13.95;;;4.53;;
39524;SDS011;25203;50.754;6.978;2023-04-25T10:58:49;18.60;;;4.38;;
39524;SDS011;25203;50.754;6.978;2023-04-25T11:00:50;10.20;;;3.78;;
39524;SDS011;25203;50.754;6.978;2023-04-25T11:02:57;17.65;;;5.15;;
39524;SDS011;25203;50.754;6.978;2023-04-25T11:09:03;17.02;;;5.20;;
39524;SDS011;25203;50.754;6.978;2023-04-25T11:11:13;13.05;;;3.75;;
39524;SDS011;25203;50.754;6.978;2023-04-25T11:13:14;17.75;;;6.68;;
39524;SDS011;25203;50.754;6.978;2023-04-25T11:15:15;19.98;;;7.18;;
39524;SDS011;25203;50.754;6.978;2023-04-25T11:17:15;13.85;;;4.90;;
39524;SDS011;25203;50.754;6.978;2023-04-25T11:19:16;13.48;;;4.65;;
39524;SDS011;25203;50.754;6.978;2023-04-25T11:21:19;13.18;;;3.97;;
39524;SDS011;25203;50.754;6.978;2023-04-25T11:23:20;9.80;;;3.60;;
39524;SDS011;25203;50.754;6.978;2023-04-25T11:25:21;8.88;;;3.40;;
39524;SDS011;25203;50.754;6.978;2023-04-25T11:27:24;14.68;;;3.50;;
39524;SDS011;25203;50.754;6.978;2023-04-25T11:29:28;11.35;;;3.58;;
39524;SDS011;25203;50.754;6.978;2023-04-25T11:31:30;12.43;;;4.03;;
39524;SDS011;25203;50.754;6.978;2023-04-25T11:33:31;15.70;;;4.38;;
39524;SDS011;25203;50.754;6.978;2023-04-25T11:35:31;16.00;;;4.22;;
39524;SDS011;25203;50.754;6.978;2023-04-25T11:37:33;12.25;;;4.07;;
39524;SDS011;25203;50.754;6.978;2023-04-25T11:39:34;12.90;;;3.78;;
39524;SDS011;25203;50.754;6.978;2023-04-25T11:41:36;21.55;;;6.28;;
39524;SDS011;25203;50.754;6.978;2023-04-25T11:43:37;13.27;;;4.93;;
39524;SDS011;25203;50.754;6.978;2023-04-25T11:45:38;12.45;;;3.65;;
39524;SDS011;25203;50.754;6.978;2023-04-25T11:47:39;15.48;;;3.75;;
39524;SDS011;25203;50.754;6.978;2023-04-25T11:49:40;12.65;;;4.03;;
39524;SDS011;25203;50.754;6.978;2023-04-25T11:53:45;11.13;;;3.40;;
39524;SDS011;25203;50.754;6.978;2023-04-25T11:55:46;8.85;;;2.80;;
39524;SDS011;25203;50.754;6.978;2023-04-25T11:57:48;7.68;;;2.65;;
39524;SDS011;25203;50.754;6.978;2023-04-25T11:59:50;7.38;;;2.83;;
39524;SDS011;25203;50.754;6.978;2023-04-25T12:01:51;9.70;;;2.58;;
39524;SDS011;25203;50.754;6.978;2023-04-25T12:03:52;15.77;;;2.70;;
39524;SDS011;25203;50.754;6.978;2023-04-25T12:05:52;15.38;;;3.70;;
39524;SDS011;25203;50.754;6.978;2023-04-25T12:08:11;8.48;;;3.30;;